Time;durP1;ratioP1;P1;durP2;ratioP2;P2;SDS_P1;SDS_P2;PMS_P1;PMS_P2;Temp;Humidity;BMP_temperature;BMP_pressure;BME280_temperature;BME280_humidity;BME280_pressure;Samples;Min_cycle;Max_cycle;Signal;HPM_P1;HPM_P2
2023/02/09 00:00:11;;;;;;;15.30;8.32;;;;;;;-0.08;52.82;101929.66;5042554;28;20061;-60
2023/02/09 00:02:39;;;;;;;14.30;8.15;;;;;;;-0.08;52.85;101924.19;5041338;28;20068;-60
2023/02/09 00:05:07;;;;;;;12.63;8.07;;;;;;;0.01;51.88;101922.09;5029936;28;20393;-60
2023/02/09 00:07:35;;;;;;;14.35;8.77;;;;;;;-0.02;52.69;101924.19;5045439;28;20052;-60
2023/02/09 00:10:02;;;;;;;12.10;7.60;;;;;;;0.07;51.59;101926.75;5038793;28;20053;-59
2023/02/09 00:15:15;;;;;;;11.13;7.57;;;;;;;0.05;51.85;101924.19;5051321;28;20060;-59
2023/02/09 00:17:45;;;;;;;10.65;6.93;;;;;;;0.07;52.22;101921.25;5043959;28;20406;-60
2023/02/09 00:20:12;;;;;;;10.65;7.32;;;;;;;0.07;51.85;101918.53;5038337;28;20489;-60
2023/02/09 00:22:40;;;;;;;11.15;6.80;;;;;;;0.05;52.60;101915.16;5051148;28;20048;-59
2023/02/09 00:25:08;;;;;;;14.13;7.90;;;;;;;0.07;52.73;101907.56;5043541;28;20060;-60
2023/02/09 00:27:38;;;;;;;10.60;7.32;;;;;;;0.06;52.36;101903.13;5044900;28;20046;-59
2023/02/09 00:30:06;;;;;;;11.75;7.25;;;;;;;0.07;52.02;101910.31;5036193;28;20049;-59
2023/02/09 00:32:34;;;;;;;12.55;7.70;;;;;;;-0.02;52.87;101894.06;5053473;28;20055;-59
2023/02/09 00:35:02;;;;;;;11.20;6.72;;;;;;;-0.01;52.00;101909.44;5043303;28;20053;-59
2023/02/09 00:37:30;;;;;;;12.88;7.18;;;;;;;-0.01;52.66;101908.59;5045669;28;20048;-60
2023/02/09 00:39:57;;;;;;;11.82;7.22;;;;;;;-0.05;52.54;101901.84;5045907;28;20163;-60
2023/02/09 00:42:25;;;;;;;13.07;7.70;;;;;;;-0.07;53.23;101904.78;5040631;28;20049;-60
2023/02/09 00:44:52;;;;;;;9.65;6.63;;;;;;;-0.06;52.65;101895.53;5049801;28;20481;-60
2023/02/09 00:47:19;;;;;;;12.57;7.00;;;;;;;-0.06;52.87;101901.00;5050518;28;20382;-61
2023/02/09 00:49:48;;;;;;;11.95;7.10;;;;;;;-0.11;52.89;101900.78;5044017;28;20057;-61
2023/02/09 00:52:15;;;;;;;12.35;7.18;;;;;;;-0.11;53.23;101899.94;5045558;28;20060;-61
2023/02/09 00:54:42;;;;;;;12.63;7.72;;;;;;;-0.19;52.59;101900.13;5046928;28;20530;-60
2023/02/09 00:57:10;;;;;;;11.68;7.30;;;;;;;-0.20;52.90;101904.78;5040550;28;20049;-61
2023/02/09 00:59:39;;;;;;;14.10;8.20;;;;;;;-0.22;52.89;101896.75;5033127;28;20057;-60
2023/02/09 01:02:07;;;;;;;12.23;7.00;;;;;;;-0.21;52.81;101898.47;5046429;28;20060;-60
2023/02/09 01:04:34;;;;;;;11.45;7.20;;;;;;;-0.22;53.26;101898.66;5043077;28;20065;-61
2023/02/09 01:07:06;;;;;;;12.48;7.43;;;;;;;-0.18;52.71;101899.09;5044984;28;20045;-60
2023/02/09 01:09:33;;;;;;;12.55;7.32;;;;;;;-0.22;52.98;101895.94;5038015;28;20053;-60
2023/02/09 01:12:00;;;;;;;12.45;7.95;;;;;;;-0.31;53.58;101903.50;5042677;28;20061;-60
2023/02/09 01:14:28;;;;;;;10.82;6.85;;;;;;;-0.25;53.06;101907.31;5038659;28;20048;-61
2023/02/09 01:16:55;;;;;;;12.05;7.57;;;;;;;-0.19;52.67;101900.97;5046012;28;20053;-60
2023/02/09 01:19:22;;;;;;;11.95;7.93;;;;;;;-0.09;52.03;101900.56;5038108;28;20056;-60
2023/02/09 01:21:50;;;;;;;11.07;6.78;;;;;;;0.01;52.18;101900.19;5044755;28;20049;-60
2023/02/09 01:24:18;;;;;;;12.63;6.88;;;;;;;0.02;52.87;101901.84;5052188;28;20489;-60
2023/02/09 01:26:46;;;;;;;13.20;7.68;;;;;;;-0.02;52.66;101901.44;5049732;28;20064;-60
2023/02/09 01:29:18;;;;;;;12.10;7.40;;;;;;;-0.01;52.84;101906.69;5039043;28;20155;-60
2023/02/09 01:31:46;;;;;;;10.05;6.97;;;;;;;-0.13;52.79;101905.63;5039274;28;20048;-60
2023/02/09 01:34:17;;;;;;;12.55;7.80;;;;;;;-0.09;53.13;101908.78;5052168;28;20486;-61
2023/02/09 01:36:45;;;;;;;12.35;8.00;;;;;;;-0.10;52.88;101907.97;5037953;28;20421;-60
2023/02/09 01:39:14;;;;;;;12.30;7.95;;;;;;;-0.08;52.78;101908.59;5039722;28;20040;-61
2023/02/09 01:41:43;;;;;;;12.35;7.90;;;;;;;-0.07;52.76;101903.94;5039592;28;20514;-60
2023/02/09 01:44:51;;;;;;;12.43;7.35;;;;;;;-0.17;52.74;101904.34;5051102;28;20048;-61
2023/02/09 01:47:20;;;;;;;14.68;8.25;;;;;;;-0.10;53.48;101901.66;5047916;28;20056;-61
2023/02/09 01:49:50;;;;;;;12.98;8.05;;;;;;;-0.11;52.93;101891.72;5050368;28;20049;-60
2023/02/09 01:52:19;;;;;;;;;;;;;;;-0.15;52.40;101890.44;5044103;28;20398;-60
2023/02/09 01:54:50;;;;;;;12.60;7.50;;;;;;;-0.20;53.20;101888.34;5044383;28;19961;-60
2023/02/09 01:57:22;;;;;;;15.07;8.35;;;;;;;-0.22;53.01;101879.50;5043802;28;20390;-60
2023/02/09 01:59:54;;;;;;;11.35;7.32;;;;;;;-0.27;53.66;101879.28;5032328;28;20045;-60
2023/02/09 02:02:22;;;;;;;13.05;7.47;;;;;;;-0.24;53.29;101876.13;5044961;28;20053;-60
2023/02/09 02:04:53;;;;;;;13.18;7.53;;;;;;;-0.24;53.38;101882.44;5043791;28;20049;-60
2023/02/09 02:07:27;;;;;;;12.48;7.75;;;;;;;-0.27;53.01;101879.28;5041024;28;20050;-60
2023/02/09 02:09:56;;;;;;;13.52;8.43;;;;;;;-0.25;52.92;101882.66;5036435;28;20057;-60
2023/02/09 02:12:25;;;;;;;12.57;8.02;;;;;;;-0.28;53.36;101880.31;5044901;28;20060;-60
2023/02/09 02:14:53;;;;;;;12.88;7.25;;;;;;;-0.28;52.72;101875.69;5041213;28;20052;-60
2023/02/09 02:17:42;;;;;;;15.50;8.00;;;;;;;-0.19;52.70;101875.50;5040220;28;20058;-60
2023/02/09 02:20:42;;;;;;;13.07;8.23;;;;;;;-0.22;53.07;101863.91;5042168;28;20060;-61
2023/02/09 02:23:19;;;;;;;12.38;7.30;;;;;;;-0.21;52.42;101870.22;5043670;28;20064;-61
2023/02/09 02:26:23;;;;;;;13.15;8.38;;;;;;;-0.19;52.33;101865.38;5047968;28;20056;-61
2023/02/09 02:29:13;;;;;;;13.07;7.82;;;;;;;-0.13;52.41;101859.06;5034522;28;20049;-61
2023/02/09 02:31:57;;;;;;;;;;;;;;;-0.09;51.33;101857.59;5048047;28;20047;-60
2023/02/09 02:34:30;;;;;;;13.38;7.65;;;;;;;0.06;50.76;101853.81;5040703;28;19928;-60
2023/02/09 02:37:14;;;;;;;13.75;8.10;;;;;;;0.03;51.07;101848.78;5050781;28;20049;-60
2023/02/09 02:39:52;;;;;;;12.02;7.85;;;;;;;0.16;51.01;101862.47;5043891;28;20470;-60
2023/02/09 02:45:13;;;;;;;13.75;7.45;;;;;;;0.39;50.01;101854.63;5051383;28;20051;-59
2023/02/09 02:47:48;;;;;;;17.85;9.18;;;;;;;0.42;49.72;101858.88;5041758;28;20052;-60
2023/02/09 02:50:22;;;;;;;12.50;7.88;;;;;;;0.45;49.72;101857.59;5047202;28;20064;-60
2023/02/09 02:52:55;;;;;;;13.55;7.53;;;;;;;0.52;49.77;101855.69;5040719;28;21495;-59
2023/02/09 02:55:24;;;;;;;11.10;7.43;;;;;;;0.59;49.78;101857.38;5039997;28;20418;-59
2023/02/09 02:57:56;;;;;;;12.95;8.15;;;;;;;0.65;49.29;101866.66;5048171;28;20053;-60
2023/02/09 03:00:30;;;;;;;14.38;9.25;;;;;;;0.68;48.70;101862.63;5041534;28;20053;-59
2023/02/09 03:03:03;;;;;;;17.27;8.10;;;;;;;0.68;49.13;101865.38;5039165;28;20045;-60
2023/02/09 03:05:32;;;;;;;17.95;9.00;;;;;;;0.67;48.66;101864.50;5036164;28;20053;-59
2023/02/09 03:07:59;;;;;;;12.88;8.35;;;;;;;0.73;48.65;101863.66;5041838;28;20045;-60
2023/02/09 03:10:31;;;;;;;11.98;7.55;;;;;;;0.83;48.23;101865.94;5039549;28;20053;-60
2023/02/09 03:13:10;;;;;;;13.02;8.00;;;;;;;0.75;48.32;101856.03;5040901;28;20061;-59
2023/02/09 03:15:54;;;;;;;11.27;7.38;;;;;;;0.85;47.97;101860.25;5042988;28;20119;-59
2023/02/09 03:18:31;;;;;;;11.65;7.60;;;;;;;0.86;48.02;101859.19;5051903;28;20048;-59
2023/02/09 03:21:08;;;;;;;14.50;8.93;;;;;;;0.88;48.07;101851.59;5051770;28;20060;-59
2023/02/09 03:23:42;;;;;;;12.60;7.40;;;;;;;0.85;48.02;101846.53;5050336;28;20060;-59
2023/02/09 03:26:18;;;;;;;16.75;8.50;;;;;;;0.91;48.28;101842.94;5052213;28;20056;-60
2023/02/09 03:28:48;;;;;;;12.75;8.13;;;;;;;0.88;48.40;101838.69;5051780;28;20496;-59
2023/02/09 03:31:16;;;;;;;13.43;8.80;;;;;;;0.86;47.73;101840.84;5052069;28;20045;-60
2023/02/09 03:33:45;;;;;;;14.23;8.18;;;;;;;0.92;47.50;101847.34;5050329;28;20053;-59
2023/02/09 03:36:16;;;;;;;14.50;8.10;;;;;;;0.90;47.36;101847.56;5035226;28;20053;-60
2023/02/09 03:38:44;;;;;;;12.13;7.97;;;;;;;0.87;47.58;101849.91;5045217;28;20048;-60
2023/02/09 03:41:11;;;;;;;12.95;7.47;;;;;;;0.91;47.36;101853.91;5051719;28;20053;-59
2023/02/09 03:46:23;;;;;;;13.43;8.30;;;;;;;0.86;47.76;101843.59;5051913;28;20060;-60
2023/02/09 03:48:52;;;;;;;14.23;8.35;;;;;;;0.91;47.72;101849.25;5050120;28;20049;-60
2023/02/09 03:51:19;;;;;;;13.98;7.95;;;;;;;0.88;47.98;101846.94;5055569;28;20060;-60
2023/02/09 03:53:46;;;;;;;16.20;8.35;;;;;;;0.90;47.64;101844.81;5053732;28;20401;-60
2023/02/09 03:56:14;;;;;;;12.65;8.18;;;;;;;0.91;47.78;101840.19;5055653;28;20060;-60
2023/02/09 03:58:41;;;;;;;14.90;8.70;;;;;;;0.81;47.79;101837.91;5055468;28;20052;-60
2023/02/09 04:01:10;;;;;;;16.67;8.85;;;;;;;0.85;47.76;101847.38;5055589;28;20060;-60
2023/02/09 04:03:38;;;;;;;15.13;8.88;;;;;;;0.86;47.60;101839.97;5052527;28;20049;-60
2023/02/09 04:06:08;;;;;;;14.77;9.63;;;;;;;0.88;47.45;101835.13;5051685;28;20061;-60
2023/02/09 04:08:35;;;;;;;;;;;;;;;0.83;47.87;101837.69;5042003;28;20411;-60
2023/02/09 04:11:02;;;;;;;15.02;8.30;;;;;;;0.78;48.27;101841.91;5036066;28;19921;-60
2023/02/09 04:13:30;;;;;;;15.38;9.85;;;;;;;0.80;47.78;101850.78;5035343;28;20479;-60
2023/02/09 04:15:57;;;;;;;15.75;9.07;;;;;;;0.79;48.30;101840.84;5035365;28;20053;-60
2023/02/09 04:18:24;;;;;;;15.43;8.77;;;;;;;0.78;48.14;101838.34;5036268;28;20053;-59
2023/02/09 04:20:52;;;;;;;13.10;8.50;;;;;;;0.80;47.80;101831.56;5048605;28;20053;-59
2023/02/09 04:23:20;;;;;;;12.82;8.07;;;;;;;0.82;47.92;101834.13;5044908;28;20068;-61
2023/02/09 04:25:48;;;;;;;14.05;9.30;;;;;;;0.79;48.04;101832.63;5053947;28;20056;-60
2023/02/09 04:28:15;;;;;;;15.00;8.70;;;;;;;0.76;47.82;101830.31;5054384;28;20053;-60
2023/02/09 04:30:42;;;;;;;14.25;9.20;;;;;;;0.72;48.08;101826.31;5054762;28;20398;-60
2023/02/09 04:33:10;;;;;;;12.20;8.25;;;;;;;0.76;48.05;101833.06;5054962;28;20119;-60
2023/02/09 04:35:38;;;;;;;16.05;9.02;;;;;;;0.77;48.25;101811.97;5054752;28;20057;-60
2023/02/09 04:38:05;;;;;;;13.63;8.45;;;;;;;0.79;47.98;101816.16;5051805;28;20053;-59
2023/02/09 04:40:33;;;;;;;14.88;8.38;;;;;;;0.79;48.18;101816.16;5039297;28;20060;-60
2023/02/09 04:43:03;;;;;;;15.02;9.38;;;;;;;0.78;48.62;101819.97;5034689;28;20057;-60
2023/02/09 04:45:30;;;;;;;17.95;9.63;;;;;;;0.74;48.98;101813.25;5034871;28;20054;-59
2023/02/09 04:47:57;;;;;;;15.63;9.10;;;;;;;0.70;48.70;101805.66;5034598;28;20413;-60
2023/02/09 04:50:24;;;;;;;13.10;8.30;;;;;;;0.67;48.40;101811.56;5034341;28;20390;-60
2023/02/09 04:52:52;;;;;;;16.02;9.15;;;;;;;0.66;48.65;101816.22;5049902;28;20497;-60
2023/02/09 04:55:19;;;;;;;13.05;8.63;;;;;;;0.64;48.20;101812.84;5054690;28;20056;-59
2023/02/09 05:00:32;;;;;;;16.15;9.48;;;;;;;0.59;48.78;101802.53;5056560;28;20056;-60
2023/02/09 05:02:59;;;;;;;14.50;9.20;;;;;;;0.64;48.46;101798.31;5053977;28;20048;-60
2023/02/09 05:05:27;;;;;;;15.63;9.05;;;;;;;0.61;48.22;101802.31;5054416;28;20057;-60
2023/02/09 05:07:54;;;;;;;16.45;9.80;;;;;;;0.61;48.46;101799.59;5051321;28;20052;-60
2023/02/09 05:10:21;;;;;;;15.05;9.40;;;;;;;0.56;48.37;101800.19;5049386;28;20053;-60
2023/02/09 05:12:50;;;;;;;15.73;9.82;;;;;;;0.57;48.36;101790.09;5039427;28;20057;-60
2023/02/09 05:15:17;;;;;;;19.23;9.85;;;;;;;0.60;48.34;101789.66;5041565;28;20053;-60
2023/02/09 05:17:45;;;;;;;17.95;10.00;;;;;;;0.63;48.46;101778.28;5033703;28;20065;-60
2023/02/09 05:20:12;;;;;;;16.38;9.68;;;;;;;0.56;48.62;101780.19;5036711;28;20045;-60
2023/02/09 05:22:39;;;;;;;17.08;9.02;;;;;;;0.55;48.61;101778.50;5043296;28;20050;-60
2023/02/09 05:25:07;;;;;;;16.83;10.43;;;;;;;0.51;48.72;101791.78;5043362;28;20060;-60
2023/02/09 05:27:35;;;;;;;17.50;10.00;;;;;;;0.53;48.22;101783.38;5042825;28;20052;-60
2023/02/09 05:30:04;;;;;;;16.02;9.70;;;;;;;0.55;48.74;101781.25;5034034;28;20144;-60
2023/02/09 05:32:31;;;;;;;15.13;9.50;;;;;;;0.56;48.50;101785.66;5044691;28;20056;-60
2023/02/09 05:34:59;;;;;;;15.27;9.60;;;;;;;0.56;48.78;101777.44;5038852;28;20840;-63
2023/02/09 05:37:26;;;;;;;18.27;9.93;;;;;;;0.56;48.69;101783.75;5044533;28;20468;-60
2023/02/09 05:39:56;;;;;;;17.00;10.05;;;;;;;0.54;48.83;101785.03;5045908;28;20485;-64
2023/02/09 05:42:26;;;;;;;20.20;11.05;;;;;;;0.55;48.90;101797.69;5050135;28;20477;-60
2023/02/09 05:44:53;;;;;;;20.27;10.85;;;;;;;0.54;49.00;101796.00;5041455;28;20063;-61
2023/02/09 05:47:24;;;;;;;16.42;10.63;;;;;;;0.55;49.15;101803.19;5033097;28;20061;-60
2023/02/09 05:49:52;;;;;;;16.02;9.75;;;;;;;0.53;48.96;101805.28;5032925;28;20053;-61
2023/02/09 05:52:19;;;;;;;17.80;9.95;;;;;;;0.48;49.65;101800.44;5047954;28;20060;-60
2023/02/09 05:54:48;;;;;;;16.60;10.52;;;;;;;0.45;49.72;101803.63;5046571;28;20075;-61
2023/02/09 05:57:16;;;;;;;15.02;9.82;;;;;;;0.42;49.84;101803.19;5051824;28;20055;-61
2023/02/09 05:59:44;;;;;;;15.40;9.70;;;;;;;0.40;49.80;101801.53;5052638;28;20056;-60
2023/02/09 06:02:11;;;;;;;19.27;10.15;;;;;;;0.39;49.74;101810.78;5052905;28;20072;-61
2023/02/09 06:04:40;;;;;;;18.58;10.75;;;;;;;0.32;49.23;101820.94;5052523;28;20057;-61
2023/02/09 06:07:07;;;;;;;17.63;10.35;;;;;;;0.34;49.34;101817.97;5039187;28;20064;-59
2023/02/09 06:09:37;;;;;;;19.00;10.35;;;;;;;0.35;49.31;101815.00;5032304;28;20057;-60
2023/02/09 06:12:06;;;;;;;16.30;10.77;;;;;;;0.35;50.08;101801.31;5037164;28;20053;-60
2023/02/09 06:14:34;;;;;;;17.15;10.75;;;;;;;0.35;49.74;101795.00;5039978;28;20061;-60
2023/02/09 06:17:02;;;;;;;15.85;9.98;;;;;;;0.26;49.64;101797.13;5035270;28;20061;-60
2023/02/09 06:19:29;;;;;;;18.70;10.85;;;;;;;0.26;49.16;101791.63;5032638;28;20054;-59
2023/02/09 06:21:58;;;;;;;18.35;10.52;;;;;;;0.09;49.67;101788.50;5039551;28;20074;-60
2023/02/09 06:24:25;;;;;;;15.80;10.13;;;;;;;0.20;49.50;101784.25;5052634;28;20053;-60
2023/02/09 06:26:52;;;;;;;17.23;10.05;;;;;;;0.24;49.17;101774.56;5052177;28;20052;-61
2023/02/09 06:29:20;;;;;;;15.57;10.52;;;;;;;0.24;48.95;101780.03;5051332;28;20470;-61
2023/02/09 06:31:47;;;;;;;18.10;11.50;;;;;;;0.26;49.27;101782.56;5047007;28;20049;-59
2023/02/09 06:34:14;;;;;;;17.77;11.07;;;;;;;0.31;48.98;101791.81;5038930;28;20414;-61
2023/02/09 06:36:42;;;;;;;18.83;11.50;;;;;;;0.35;49.48;101795.81;5035970;28;20053;-60
2023/02/09 06:39:10;;;;;;;18.88;12.23;;;;;;;0.30;49.77;101803.84;5051810;28;20056;-61
2023/02/09 06:41:40;;;;;;;19.02;11.10;;;;;;;0.37;49.70;101799.19;5052239;28;20052;-60
2023/02/09 06:44:07;;;;;;;22.80;11.95;;;;;;;0.43;49.44;101797.50;5052546;28;20516;-59
2023/02/09 06:46:34;;;;;;;20.15;12.23;;;;;;;0.43;49.63;101797.50;5042685;28;20053;-60
2023/02/09 06:49:02;;;;;;;20.08;11.15;;;;;;;0.48;49.40;101802.34;5033208;28;20498;-60
2023/02/09 06:51:29;;;;;;;19.85;11.50;;;;;;;0.56;49.04;101811.16;5042868;28;20509;-60
2023/02/09 06:53:56;;;;;;;20.52;11.35;;;;;;;0.62;49.92;101822.34;5050823;28;20052;-61
2023/02/09 06:56:25;;;;;;;19.17;11.75;;;;;;;0.65;49.52;101816.41;5052027;28;20083;-60
2023/02/09 06:58:52;;;;;;;20.60;11.60;;;;;;;0.67;49.48;101817.88;5051880;28;20528;-61
2023/02/09 07:01:19;;;;;;;24.73;11.85;;;;;;;0.66;49.86;101824.44;5051985;28;20055;-61
2023/02/09 07:03:46;;;;;;;18.92;11.68;;;;;;;0.76;49.44;101830.31;5041044;28;20057;-60
2023/02/09 07:06:16;;;;;;;16.98;11.73;;;;;;;0.84;49.61;101833.88;5046120;28;20060;-61
2023/02/09 07:08:45;;;;;;;17.67;10.35;;;;;;;0.88;49.35;101832.38;5050440;28;20063;-61
2023/02/09 07:11:15;;;;;;;17.52;11.32;;;;;;;1.01;48.94;101844.16;5035507;28;20057;-62
2023/02/09 07:13:44;;;;;;;20.73;11.80;;;;;;;1.02;49.08;101847.75;5031925;28;20054;-60
2023/02/09 07:16:12;;;;;;;18.85;11.20;;;;;;;1.15;49.10;101846.84;5032044;28;20064;-61
2023/02/09 07:18:40;;;;;;;19.83;12.30;;;;;;;1.27;48.69;101849.75;5032218;28;20049;-61
2023/02/09 07:21:10;;;;;;;18.70;10.88;;;;;;;1.36;48.16;101848.44;5036397;28;20375;-61
2023/02/09 07:23:38;;;;;;;17.67;11.40;;;;;;;1.85;47.57;101844.13;5051898;28;20394;-60
2023/02/09 07:26:12;;;;;;;16.98;11.13;;;;;;;2.43;46.04;101837.50;5055617;28;20056;-61
2023/02/09 07:28:39;;;;;;;16.95;10.57;;;;;;;2.69;45.12;101839.16;5056216;28;20049;-61
2023/02/09 07:31:10;;;;;;;18.73;11.45;;;;;;;2.68;45.19;101839.38;5056076;28;20056;-60
2023/02/09 07:33:37;;;;;;;20.92;12.15;;;;;;;2.99;44.42;101841.13;5056179;28;20417;-61
2023/02/09 07:36:06;;;;;;;18.23;11.00;;;;;;;3.34;44.23;101843.22;5043973;28;20494;-61
2023/02/09 07:38:34;;;;;;;17.08;11.80;;;;;;;3.41;43.47;101844.81;5035869;28;20053;-61
2023/02/09 07:41:02;;;;;;;16.83;10.70;;;;;;;3.77;43.59;101840.28;5036028;28;20049;-60
2023/02/09 07:43:29;;;;;;;16.90;11.68;;;;;;;4.35;41.26;101844.22;5035488;28;20057;-61
2023/02/09 07:46:00;;;;;;;15.82;10.40;;;;;;;4.90;41.18;101845.75;5049315;28;20049;-60
2023/02/09 07:48:29;;;;;;;17.45;11.63;;;;;;;6.07;39.26;101838.09;5055568;28;20059;-61
2023/02/09 07:50:56;;;;;;;17.65;10.90;;;;;;;7.88;36.54;101824.41;5053622;28;20044;-61
2023/02/09 07:53:24;;;;;;;18.40;10.95;;;;;;;9.10;34.54;101808.88;5055738;28;20053;-61
2023/02/09 07:55:51;;;;;;;15.90;10.88;;;;;;;9.80;33.69;101822.41;5055365;28;20394;-60
2023/02/09 07:58:20;;;;;;;18.48;11.98;;;;;;;10.14;31.38;101814.38;5055843;28;20406;-59
2023/02/09 08:00:49;;;;;;;15.73;10.40;;;;;;;10.67;31.95;101805.72;5035703;28;20064;-59
2023/02/09 08:03:18;;;;;;;12.73;9.77;;;;;;;11.15;33.52;101794.97;5035576;28;21023;-59
2023/02/09 08:05:53;;;;;;;15.32;10.82;;;;;;;11.66;30.57;101786.28;5037445;28;20055;-59
2023/02/09 08:08:20;;;;;;;15.40;11.18;;;;;;;11.21;29.38;101770.66;5035607;28;20058;-59
2023/02/09 08:10:48;;;;;;;15.00;10.88;;;;;;;10.59;29.94;101782.03;5041347;28;20409;-58
2023/02/09 08:13:39;;;;;;;14.05;10.98;;;;;;;10.29;29.63;101807.94;5055400;28;20056;-60
2023/02/09 08:16:09;;;;;;;14.93;11.07;;;;;;;10.47;29.72;101799.06;5054181;28;20474;-59
2023/02/09 08:18:41;;;;;;;18.88;11.15;;;;;;;11.41;29.75;101800.41;5038862;28;20065;-59
2023/02/09 08:21:13;;;;;;;17.38;11.60;;;;;;;12.59;28.68;101805.91;5041158;28;20421;-59
2023/02/09 08:23:43;;;;;;;17.33;11.88;;;;;;;14.27;27.32;101801.94;5055015;28;20064;-59
2023/02/09 08:26:13;;;;;;;15.50;11.40;;;;;;;15.58;25.37;101811.97;5055276;28;20064;-59
2023/02/09 08:28:43;;;;;;;16.30;10.95;;;;;;;16.78;23.73;101807.59;5055313;28;20429;-60
2023/02/09 08:31:10;;;;;;;;;;;;;;;17.35;22.08;101789.91;5055390;28;20045;-59
2023/02/09 08:33:37;;;;;;;14.43;10.40;;;;;;;18.78;21.50;101792.81;5039267;28;19921;-59
2023/02/09 08:36:05;;;;;;;14.45;10.57;;;;;;;19.76;19.95;101775.81;5036903;28;20053;-59
2023/02/09 08:38:34;;;;;;;13.27;10.77;;;;;;;20.44;18.88;101778.28;5055008;28;20049;-59
2023/02/09 08:41:03;;;;;;;12.70;10.25;;;;;;;20.55;19.17;101784.31;5055007;28;20056;-60
2023/02/09 08:43:31;;;;;;;12.02;9.95;;;;;;;20.92;18.13;101777.94;5054881;28;20052;-59
2023/02/09 08:46:02;;;;;;;13.75;11.30;;;;;;;20.78;18.59;101783.91;5054904;28;20106;-59
2023/02/09 08:48:30;;;;;;;14.73;11.40;;;;;;;20.24;19.00;101797.00;5053843;28;20063;-59
2023/02/09 08:50:58;;;;;;;14.13;11.80;;;;;;;20.11;18.99;101802.94;5035616;28;20498;-59
2023/02/09 08:53:25;;;;;;;14.43;12.20;;;;;;;19.85;18.72;101813.31;5054758;28;20060;-59
2023/02/09 08:55:54;;;;;;;14.65;11.32;;;;;;;19.94;18.78;101816.06;5054573;28;20064;-59
2023/02/09 08:58:21;;;;;;;13.82;11.63;;;;;;;20.17;18.98;101813.69;5054475;28;20049;-60
2023/02/09 09:00:49;;;;;;;13.30;10.05;;;;;;;20.70;18.49;101816.00;5054400;28;20053;-60
2023/02/09 09:03:16;;;;;;;14.98;11.82;;;;;;;21.22;17.73;101818.16;5043452;28;20049;-61
2023/02/09 09:05:43;;;;;;;18.20;11.40;;;;;;;21.36;18.12;101823.50;5034751;28;20045;-60
2023/02/09 09:08:11;;;;;;;12.77;10.77;;;;;;;21.46;17.58;101826.69;5050808;28;20045;-60
2023/02/09 09:10:38;;;;;;;13.77;11.82;;;;;;;21.61;17.43;101832.81;5054450;28;20481;-60
2023/02/09 09:13:06;;;;;;;13.98;11.20;;;;;;;22.01;16.21;101820.66;5053858;28;20045;-60
2023/02/09 09:15:35;;;;;;;14.03;11.37;;;;;;;21.24;17.13;101842.13;5054572;28;20057;-60
2023/02/09 09:18:02;;;;;;;14.45;11.15;;;;;;;21.26;16.71;101842.59;5039882;28;20064;-60
2023/02/09 09:20:30;;;;;;;12.30;10.75;;;;;;;21.13;16.59;101852.28;5034798;28;20065;-60
2023/02/09 09:22:58;;;;;;;13.93;11.50;;;;;;;21.52;16.98;101843.44;5034072;28;20053;-60
2023/02/09 09:25:25;;;;;;;13.70;11.30;;;;;;;21.36;16.55;101844.16;5034425;28;20053;-60
2023/02/09 09:27:52;;;;;;;11.63;10.30;;;;;;;21.36;16.59;101841.31;5034128;28;20060;-59
2023/02/09 09:30:22;;;;;;;14.15;11.63;;;;;;;21.47;16.42;101851.00;5034263;28;20053;-60
2023/02/09 09:32:49;;;;;;;14.70;11.48;;;;;;;20.15;17.19;101861.28;5034366;28;20098;-60
2023/02/09 09:35:17;;;;;;;13.30;10.82;;;;;;;19.74;17.74;101862.97;5034515;28;20064;-60
2023/02/09 09:37:44;;;;;;;13.32;10.45;;;;;;;19.76;17.91;101862.59;5042316;28;20063;-60
2023/02/09 09:40:20;;;;;;;11.55;10.20;;;;;;;19.95;17.70;101868.63;5053799;28;20056;-60
2023/02/09 09:42:52;;;;;;;13.02;10.50;;;;;;;20.04;17.32;101860.06;5053612;28;20052;-60
2023/02/09 09:45:24;;;;;;;14.18;11.18;;;;;;;21.37;17.11;101850.63;5053789;28;20375;-60
2023/02/09 09:47:52;;;;;;;13.95;11.15;;;;;;;21.04;16.68;101858.06;5046066;28;20060;-59
2023/02/09 09:50:24;;;;;;;14.85;10.43;;;;;;;22.28;16.10;101847.44;5033250;28;20516;-60
2023/02/09 09:52:55;;;;;;;13.65;11.07;;;;;;;21.96;15.59;101850.09;5039942;28;20064;-60
2023/02/09 09:55:26;;;;;;;13.95;11.18;;;;;;;23.03;15.58;101854.34;5053040;28;20057;-60
2023/02/09 09:57:54;;;;;;;13.35;11.00;;;;;;;22.66;15.96;101857.41;5053275;28;20052;-59
2023/02/09 10:00:26;;;;;;;12.38;10.45;;;;;;;23.23;15.44;101849.59;5053723;28;20059;-60
2023/02/09 10:02:54;;;;;;;12.95;10.80;;;;;;;22.83;15.65;101862.75;5046619;28;20052;-59
2023/02/09 10:05:23;;;;;;;12.10;10.60;;;;;;;24.10;15.07;101864.63;5032937;28;20433;-60
2023/02/09 10:07:54;;;;;;;;;;;;;;;22.84;15.08;101857.88;5044078;28;20478;-60
2023/02/09 10:10:33;;;;;;;12.25;10.93;;;;;;;24.17;14.56;101847.72;5053284;28;19921;-60
2023/02/09 10:13:07;;;;;;;12.73;10.88;;;;;;;25.32;14.33;101855.59;5052639;28;20060;-60
2023/02/09 10:15:36;;;;;;;11.70;10.27;;;;;;;25.56;13.70;101860.06;5052803;28;20057;-59
2023/02/09 10:18:13;;;;;;;18.30;12.55;;;;;;;25.33;14.51;101854.41;5049888;28;20053;-60
2023/02/09 10:20:46;;;;;;;21.73;17.42;;;;;;;25.36;13.06;101850.75;5033347;28;20490;-60
2023/02/09 10:23:23;;;;;;;13.25;10.20;;;;;;;23.23;15.06;101860.97;5032556;28;20404;-60
2023/02/09 10:26:03;;;;;;;12.13;10.27;;;;;;;22.76;15.26;101864.56;5033118;28;20048;-60
2023/02/09 10:28:32;;;;;;;12.77;10.50;;;;;;;22.15;15.72;101849.44;5033173;28;20053;-60
2023/02/09 10:31:24;;;;;;;;;;;;;;;21.56;16.22;101861.41;5033575;28;20049;-60
2023/02/09 10:33:57;;;;;;;14.05;10.23;;;;;;;21.86;15.91;101857.09;5026621;28;20366;-61
2023/02/09 10:36:31;;;;;;;12.25;10.02;;;;;;;22.59;15.63;101860.88;5048976;28;20048;-61
2023/02/09 10:39:13;;;;;;;13.07;10.00;;;;;;;22.39;15.69;101854.22;5050243;28;20053;-62
2023/02/09 10:41:43;;;;;;;13.02;10.15;;;;;;;22.64;15.65;101848.44;5052570;28;20426;-62
2023/02/09 10:44:19;;;;;;;12.65;10.82;;;;;;;23.46;15.08;101844.88;5052059;28;20072;-62
2023/02/09 10:46:47;;;;;;;13.15;10.13;;;;;;;22.86;15.39;101833.59;5052197;28;20056;-62
2023/02/09 10:49:30;;;;;;;12.68;10.35;;;;;;;22.73;15.16;101823.50;5051879;28;20075;-62
2023/02/09 10:52:14;;;;;;;12.73;9.25;;;;;;;22.62;15.28;101820.38;5044769;28;20049;-61
2023/02/09 10:54:42;;;;;;;10.35;9.25;;;;;;;23.25;14.78;101828.13;5046708;28;20063;-61
2023/02/09 10:57:24;;;;;;;10.48;9.25;;;;;;;23.68;14.64;101811.22;5042135;28;20401;-61
2023/02/09 10:59:54;;;;;;;13.23;9.95;;;;;;;24.50;13.90;101815.03;5031742;28;20068;-62
2023/02/09 11:02:34;;;;;;;10.95;9.63;;;;;;;23.91;14.34;101802.81;5031953;28;20065;-62
2023/02/09 11:05:02;;;;;;;11.40;9.77;;;;;;;23.77;14.35;101819.59;5031879;28;20445;-61
2023/02/09 11:07:37;;;;;;;10.25;9.15;;;;;;;23.50;14.81;101822.22;5040299;28;20053;-62
2023/02/09 11:10:12;;;;;;;12.63;9.70;;;;;;;23.78;14.34;101818.41;5034354;28;20049;-62
2023/02/09 11:12:39;;;;;;;13.48;9.57;;;;;;;24.28;13.95;101813.75;5032114;28;20061;-62
2023/02/09 11:15:12;;;;;;;12.65;9.18;;;;;;;23.66;14.15;101810.78;5031926;28;20391;-62
2023/02/09 11:17:44;;;;;;;12.73;9.32;;;;;;;23.75;14.43;101816.25;5047096;28;20080;-62
2023/02/09 11:20:24;;;;;;;12.07;9.23;;;;;;;23.80;14.05;101811.13;5051759;28;20064;-62
2023/02/09 11:23:23;;;;;;;10.10;8.77;;;;;;;23.57;14.51;101807.34;5050494;28;20355;-62
2023/02/09 11:25:58;;;;;;;10.88;8.73;;;;;;;23.18;14.64;101793.00;5015839;28;20056;-62
2023/02/09 11:28:35;;;;;;;12.40;9.88;;;;;;;23.87;14.59;101802.75;5051589;28;20057;-62
2023/02/09 11:31:18;;;;;;;11.70;9.77;;;;;;;23.80;14.11;101808.28;5051883;28;20136;-61
2023/02/09 11:33:55;;;;;;;10.52;8.52;;;;;;;22.90;15.02;101805.28;5051839;28;20379;-60
2023/02/09 11:36:41;;;;;;;11.23;10.05;;;;;;;23.24;14.72;101806.56;5051524;28;20414;-60
2023/02/09 11:39:13;;;;;;;12.07;9.32;;;;;;;23.20;14.54;101807.69;5050240;28;20049;-60
2023/02/09 11:44:37;;;;;;;11.75;9.02;;;;;;;22.67;14.98;101790.88;5057065;28;20060;-62
2023/02/09 11:47:07;;;;;;;11.48;9.20;;;;;;;23.06;14.74;101780.56;5034051;28;20060;-62